sensor_id;sensor_type;location;lat;lon;timestamp;P1;durP1;ratioP1;P2;durP2;ratioP2
74243;SDS011;62600;55.732;37.662;2022-09-29T00:01:11;10.48;;;4.70;;
74243;SDS011;62600;55.732;37.662;2022-09-29T00:02:42;7.47;;;5.30;;
74243;SDS011;62600;55.732;37.662;2022-09-29T00:04:12;6.95;;;4.93;;
74243;SDS011;62600;55.732;37.662;2022-09-29T00:05:47;8.63;;;4.93;;
74243;SDS011;62600;55.732;37.662;2022-09-29T00:07:21;7.40;;;4.43;;
74243;SDS011;62600;55.732;37.662;2022-09-29T00:08:52;6.72;;;4.63;;
74243;SDS011;62600;55.732;37.662;2022-09-29T00:10:22;9.85;;;4.78;;
74243;SDS011;62600;55.732;37.662;2022-09-29T00:11:55;5.90;;;4.22;;
74243;SDS011;62600;55.732;37.662;2022-09-29T00:14:56;5.93;;;3.30;;
74243;SDS011;62600;55.732;37.662;2022-09-29T00:16:26;4.25;;;3.08;;
74243;SDS011;62600;55.732;37.662;2022-09-29T00:17:58;4.97;;;3.75;;
74243;SDS011;62600;55.732;37.662;2022-09-29T00:19:29;4.68;;;3.58;;
74243;SDS011;62600;55.732;37.662;2022-09-29T00:21:03;4.90;;;3.72;;
74243;SDS011;62600;55.732;37.662;2022-09-29T00:22:39;5.78;;;3.67;;
74243;SDS011;62600;55.732;37.662;2022-09-29T00:24:09;7.45;;;3.78;;
74243;SDS011;62600;55.732;37.662;2022-09-29T00:25:40;6.43;;;3.40;;
74243;SDS011;62600;55.732;37.662;2022-09-29T00:27:12;6.10;;;3.70;;
74243;SDS011;62600;55.732;37.662;2022-09-29T00:28:45;5.65;;;3.83;;
74243;SDS011;62600;55.732;37.662;2022-09-29T00:30:18;6.60;;;3.53;;
74243;SDS011;62600;55.732;37.662;2022-09-29T00:31:48;4.88;;;3.53;;
74243;SDS011;62600;55.732;37.662;2022-09-29T00:33:18;7.10;;;3.88;;
74243;SDS011;62600;55.732;37.662;2022-09-29T00:34:49;6.38;;;3.40;;
74243;SDS011;62600;55.732;37.662;2022-09-29T00:36:20;5.80;;;3.63;;
74243;SDS011;62600;55.732;37.662;2022-09-29T00:37:51;6.15;;;3.88;;
74243;SDS011;62600;55.732;37.662;2022-09-29T00:39:22;7.07;;;3.15;;
74243;SDS011;62600;55.732;37.662;2022-09-29T00:40:52;5.20;;;3.30;;
74243;SDS011;62600;55.732;37.662;2022-09-29T00:42:23;4.22;;;3.17;;
74243;SDS011;62600;55.732;37.662;2022-09-29T00:45:42;4.82;;;3.30;;
74243;SDS011;62600;55.732;37.662;2022-09-29T00:47:14;4.85;;;3.40;;
74243;SDS011;62600;55.732;37.662;2022-09-29T00:48:47;4.47;;;3.00;;
74243;SDS011;62600;55.732;37.662;2022-09-29T00:51:00;4.63;;;3.58;;
74243;SDS011;62600;55.732;37.662;2022-09-29T00:52:19;4.78;;;3.47;;
74243;SDS011;62600;55.732;37.662;2022-09-29T00:53:54;5.40;;;3.42;;
74243;SDS011;62600;55.732;37.662;2022-09-29T00:57:04;6.40;;;3.03;;
74243;SDS011;62600;55.732;37.662;2022-09-29T01:00:14;5.90;;;3.38;;
74243;SDS011;62600;55.732;37.662;2022-09-29T01:01:45;3.78;;;3.33;;
74243;SDS011;62600;55.732;37.662;2022-09-29T01:03:16;6.10;;;3.38;;
74243;SDS011;62600;55.732;37.662;2022-09-29T01:04:52;5.25;;;3.33;;
74243;SDS011;62600;55.732;37.662;2022-09-29T01:09:40;6.10;;;3.13;;
74243;SDS011;62600;55.732;37.662;2022-09-29T01:11:12;4.03;;;2.88;;
74243;SDS011;62600;55.732;37.662;2022-09-29T01:12:44;4.70;;;3.40;;
74243;SDS011;62600;55.732;37.662;2022-09-29T01:14:15;5.68;;;3.65;;
74243;SDS011;62600;55.732;37.662;2022-09-29T01:15:47;4.63;;;2.92;;
74243;SDS011;62600;55.732;37.662;2022-09-29T01:17:17;8.35;;;3.50;;
74243;SDS011;62600;55.732;37.662;2022-09-29T01:18:47;5.38;;;3.60;;
74243;SDS011;62600;55.732;37.662;2022-09-29T01:20:18;5.07;;;3.40;;
74243;SDS011;62600;55.732;37.662;2022-09-29T01:32:33;3.95;;;3.30;;
74243;SDS011;62600;55.732;37.662;2022-09-29T01:39:50;5.93;;;3.65;;
74243;SDS011;62600;55.732;37.662;2022-09-29T01:41:35;7.40;;;3.58;;
74243;SDS011;62600;55.732;37.662;2022-09-29T01:43:17;5.82;;;3.40;;
74243;SDS011;62600;55.732;37.662;2022-09-29T01:46:43;6.35;;;3.65;;
74243;SDS011;62600;55.732;37.662;2022-09-29T01:48:28;5.85;;;3.50;;
74243;SDS011;62600;55.732;37.662;2022-09-29T01:50:03;6.80;;;3.50;;
74243;SDS011;62600;55.732;37.662;2022-09-29T01:51:39;5.28;;;3.13;;
74243;SDS011;62600;55.732;37.662;2022-09-29T01:53:20;5.10;;;3.47;;
74243;SDS011;62600;55.732;37.662;2022-09-29T01:55:01;6.03;;;3.55;;
74243;SDS011;62600;55.732;37.662;2022-09-29T01:56:35;3.80;;;3.30;;
74243;SDS011;62600;55.732;37.662;2022-09-29T01:58:13;5.60;;;3.17;;
74243;SDS011;62600;55.732;37.662;2022-09-29T02:01:40;5.68;;;3.40;;
74243;SDS011;62600;55.732;37.662;2022-09-29T02:03:15;6.05;;;3.65;;
74243;SDS011;62600;55.732;37.662;2022-09-29T02:04:49;4.60;;;3.28;;
74243;SDS011;62600;55.732;37.662;2022-09-29T02:06:24;5.38;;;3.72;;
74243;SDS011;62600;55.732;37.662;2022-09-29T02:08:01;7.05;;;3.30;;
74243;SDS011;62600;55.732;37.662;2022-09-29T02:09:45;5.85;;;3.67;;
74243;SDS011;62600;55.732;37.662;2022-09-29T02:11:20;5.47;;;3.92;;
74243;SDS011;62600;55.732;37.662;2022-09-29T02:12:51;4.97;;;3.60;;
74243;SDS011;62600;55.732;37.662;2022-09-29T02:14:27;5.43;;;3.33;;
74243;SDS011;62600;55.732;37.662;2022-09-29T02:16:02;4.28;;;3.30;;
74243;SDS011;62600;55.732;37.662;2022-09-29T02:17:38;3.83;;;2.97;;
74243;SDS011;62600;55.732;37.662;2022-09-29T02:19:19;4.40;;;3.08;;
74243;SDS011;62600;55.732;37.662;2022-09-29T02:20:53;5.00;;;3.22;;
74243;SDS011;62600;55.732;37.662;2022-09-29T02:22:24;5.13;;;2.97;;
74243;SDS011;62600;55.732;37.662;2022-09-29T02:23:54;8.65;;;3.28;;
74243;SDS011;62600;55.732;37.662;2022-09-29T02:25:25;4.35;;;2.88;;
74243;SDS011;62600;55.732;37.662;2022-09-29T02:26:56;4.13;;;2.95;;
74243;SDS011;62600;55.732;37.662;2022-09-29T02:28:27;4.47;;;2.70;;
74243;SDS011;62600;55.732;37.662;2022-09-29T02:29:57;4.50;;;2.95;;
74243;SDS011;62600;55.732;37.662;2022-09-29T02:31:29;4.70;;;3.17;;
74243;SDS011;62600;55.732;37.662;2022-09-29T02:33:00;4.93;;;3.67;;
74243;SDS011;62600;55.732;37.662;2022-09-29T02:34:32;6.60;;;2.90;;
74243;SDS011;62600;55.732;37.662;2022-09-29T02:38:11;4.30;;;2.97;;
74243;SDS011;62600;55.732;37.662;2022-09-29T02:40:10;5.10;;;3.08;;
74243;SDS011;62600;55.732;37.662;2022-09-29T02:42:04;3.67;;;2.78;;
74243;SDS011;62600;55.732;37.662;2022-09-29T02:45:29;2.80;;;2.50;;
74243;SDS011;62600;55.732;37.662;2022-09-29T02:54:52;4.82;;;2.40;;
74243;SDS011;62600;55.732;37.662;2022-09-29T02:56:44;3.83;;;2.63;;
74243;SDS011;62600;55.732;37.662;2022-09-29T02:58:19;3.42;;;2.50;;
74243;SDS011;62600;55.732;37.662;2022-09-29T03:00:08;4.45;;;3.00;;
74243;SDS011;62600;55.732;37.662;2022-09-29T03:01:51;4.45;;;3.35;;
74243;SDS011;62600;55.732;37.662;2022-09-29T03:03:23;4.45;;;2.83;;
74243;SDS011;62600;55.732;37.662;2022-09-29T03:04:53;3.67;;;2.75;;
74243;SDS011;62600;55.732;37.662;2022-09-29T03:06:24;5.80;;;3.35;;
74243;SDS011;62600;55.732;37.662;2022-09-29T03:07:55;4.47;;;3.03;;
74243;SDS011;62600;55.732;37.662;2022-09-29T03:09:26;4.68;;;3.00;;
74243;SDS011;62600;55.732;37.662;2022-09-29T03:10:57;3.67;;;2.78;;
74243;SDS011;62600;55.732;37.662;2022-09-29T03:12:28;4.50;;;2.70;;
74243;SDS011;62600;55.732;37.662;2022-09-29T03:13:59;4.15;;;2.90;;
74243;SDS011;62600;55.732;37.662;2022-09-29T03:15:30;4.53;;;2.83;;
74243;SDS011;62600;55.732;37.662;2022-09-29T03:17:01;4.22;;;2.97;;
74243;SDS011;62600;55.732;37.662;2022-09-29T03:18:31;6.38;;;3.13;;
74243;SDS011;62600;55.732;37.662;2022-09-29T03:20:02;4.53;;;3.20;;
74243;SDS011;62600;55.732;37.662;2022-09-29T03:21:33;5.38;;;3.33;;
74243;SDS011;62600;55.732;37.662;2022-09-29T03:23:04;4.40;;;3.13;;
74243;SDS011;62600;55.732;37.662;2022-09-29T03:24:34;3.80;;;3.00;;
74243;SDS011;62600;55.732;37.662;2022-09-29T03:26:05;4.30;;;3.08;;
74243;SDS011;62600;55.732;37.662;2022-09-29T03:27:35;6.55;;;3.35;;
74243;SDS011;62600;55.732;37.662;2022-09-29T03:29:07;6.40;;;3.55;;
74243;SDS011;62600;55.732;37.662;2022-09-29T03:30:37;5.63;;;3.15;;
74243;SDS011;62600;55.732;37.662;2022-09-29T03:32:08;5.05;;;3.35;;
74243;SDS011;62600;55.732;37.662;2022-09-29T03:33:39;7.28;;;3.65;;
74243;SDS011;62600;55.732;37.662;2022-09-29T03:35:10;4.72;;;3.58;;
74243;SDS011;62600;55.732;37.662;2022-09-29T03:36:41;5.35;;;3.38;;
74243;SDS011;62600;55.732;37.662;2022-09-29T03:38:11;5.53;;;3.15;;
74243;SDS011;62600;55.732;37.662;2022-09-29T03:39:42;5.07;;;3.40;;
74243;SDS011;62600;55.732;37.662;2022-09-29T03:41:12;6.47;;;3.92;;
74243;SDS011;62600;55.732;37.662;2022-09-29T03:42:44;5.35;;;3.75;;
74243;SDS011;62600;55.732;37.662;2022-09-29T03:44:16;4.30;;;3.33;;
74243;SDS011;62600;55.732;37.662;2022-09-29T03:45:50;4.10;;;3.10;;
74243;SDS011;62600;55.732;37.662;2022-09-29T03:47:21;6.03;;;3.65;;
74243;SDS011;62600;55.732;37.662;2022-09-29T03:48:53;5.53;;;3.38;;
74243;SDS011;62600;55.732;37.662;2022-09-29T03:50:24;7.97;;;3.67;;
74243;SDS011;62600;55.732;37.662;2022-09-29T03:51:54;7.22;;;4.28;;
74243;SDS011;62600;55.732;37.662;2022-09-29T03:53:25;5.68;;;3.47;;
74243;SDS011;62600;55.732;37.662;2022-09-29T03:54:56;7.05;;;3.55;;
74243;SDS011;62600;55.732;37.662;2022-09-29T03:56:26;4.82;;;2.92;;
74243;SDS011;62600;55.732;37.662;2022-09-29T03:57:56;7.55;;;3.67;;
74243;SDS011;62600;55.732;37.662;2022-09-29T03:59:27;7.45;;;3.97;;
74243;SDS011;62600;55.732;37.662;2022-09-29T04:00:58;7.07;;;3.58;;
74243;SDS011;62600;55.732;37.662;2022-09-29T04:02:28;9.23;;;3.50;;
74243;SDS011;62600;55.732;37.662;2022-09-29T04:03:59;7.80;;;4.68;;
74243;SDS011;62600;55.732;37.662;2022-09-29T04:05:29;8.23;;;4.55;;
74243;SDS011;62600;55.732;37.662;2022-09-29T04:07:00;8.00;;;4.60;;
74243;SDS011;62600;55.732;37.662;2022-09-29T04:08:30;9.57;;;4.03;;
74243;SDS011;62600;55.732;37.662;2022-09-29T04:10:00;6.35;;;4.18;;
74243;SDS011;62600;55.732;37.662;2022-09-29T04:11:31;5.65;;;4.18;;
74243;SDS011;62600;55.732;37.662;2022-09-29T04:13:02;5.40;;;3.83;;
74243;SDS011;62600;55.732;37.662;2022-09-29T04:14:33;8.70;;;4.43;;
74243;SDS011;62600;55.732;37.662;2022-09-29T04:16:04;7.15;;;3.88;;
74243;SDS011;62600;55.732;37.662;2022-09-29T04:17:35;7.30;;;4.28;;
74243;SDS011;62600;55.732;37.662;2022-09-29T04:19:05;12.27;;;4.35;;
74243;SDS011;62600;55.732;37.662;2022-09-29T04:20:36;5.80;;;3.80;;
74243;SDS011;62600;55.732;37.662;2022-09-29T04:22:07;8.77;;;4.18;;
74243;SDS011;62600;55.732;37.662;2022-09-29T04:23:38;7.13;;;4.13;;
74243;SDS011;62600;55.732;37.662;2022-09-29T04:25:08;5.90;;;3.78;;
74243;SDS011;62600;55.732;37.662;2022-09-29T04:26:39;9.07;;;4.07;;
74243;SDS011;62600;55.732;37.662;2022-09-29T04:28:10;5.68;;;4.22;;
74243;SDS011;62600;55.732;37.662;2022-09-29T04:29:40;7.45;;;3.90;;
74243;SDS011;62600;55.732;37.662;2022-09-29T04:31:11;7.28;;;4.00;;
74243;SDS011;62600;55.732;37.662;2022-09-29T04:32:41;8.27;;;3.75;;
74243;SDS011;62600;55.732;37.662;2022-09-29T04:34:12;6.55;;;4.47;;
74243;SDS011;62600;55.732;37.662;2022-09-29T04:35:42;8.07;;;4.30;;
74243;SDS011;62600;55.732;37.662;2022-09-29T04:37:13;6.85;;;3.72;;
74243;SDS011;62600;55.732;37.662;2022-09-29T04:38:43;4.90;;;3.53;;
74243;SDS011;62600;55.732;37.662;2022-09-29T04:40:14;7.30;;;4.05;;
74243;SDS011;62600;55.732;37.662;2022-09-29T04:41:45;7.85;;;3.92;;
74243;SDS011;62600;55.732;37.662;2022-09-29T04:43:16;5.68;;;3.90;;
74243;SDS011;62600;55.732;37.662;2022-09-29T04:44:47;6.53;;;4.60;;
74243;SDS011;62600;55.732;37.662;2022-09-29T04:46:17;5.35;;;3.90;;
74243;SDS011;62600;55.732;37.662;2022-09-29T04:47:47;6.20;;;3.90;;
74243;SDS011;62600;55.732;37.662;2022-09-29T04:49:18;6.05;;;3.67;;
74243;SDS011;62600;55.732;37.662;2022-09-29T04:50:49;7.45;;;3.83;;
74243;SDS011;62600;55.732;37.662;2022-09-29T04:53:51;4.68;;;3.25;;
74243;SDS011;62600;55.732;37.662;2022-09-29T04:55:22;7.30;;;3.78;;
74243;SDS011;62600;55.732;37.662;2022-09-29T04:56:52;6.88;;;3.35;;
74243;SDS011;62600;55.732;37.662;2022-09-29T04:58:23;4.57;;;3.70;;
74243;SDS011;62600;55.732;37.662;2022-09-29T04:59:53;6.28;;;4.00;;
74243;SDS011;62600;55.732;37.662;2022-09-29T05:01:25;5.93;;;3.92;;
74243;SDS011;62600;55.732;37.662;2022-09-29T05:02:56;5.55;;;3.88;;
74243;SDS011;62600;55.732;37.662;2022-09-29T05:04:26;6.80;;;4.00;;
74243;SDS011;62600;55.732;37.662;2022-09-29T05:05:57;5.32;;;3.78;;
74243;SDS011;62600;55.732;37.662;2022-09-29T05:07:27;6.03;;;3.38;;
74243;SDS011;62600;55.732;37.662;2022-09-29T05:08:58;7.93;;;3.90;;
74243;SDS011;62600;55.732;37.662;2022-09-29T05:10:28;6.75;;;4.05;;
74243;SDS011;62600;55.732;37.662;2022-09-29T05:12:00;7.43;;;4.30;;
74243;SDS011;62600;55.732;37.662;2022-09-29T05:13:31;6.68;;;3.97;;
74243;SDS011;62600;55.732;37.662;2022-09-29T05:15:01;6.30;;;4.15;;
74243;SDS011;62600;55.732;37.662;2022-09-29T05:16:33;6.00;;;4.00;;
74243;SDS011;62600;55.732;37.662;2022-09-29T05:18:04;6.70;;;4.22;;
74243;SDS011;62600;55.732;37.662;2022-09-29T05:19:34;8.63;;;4.18;;
74243;SDS011;62600;55.732;37.662;2022-09-29T05:21:06;5.03;;;3.90;;
74243;SDS011;62600;55.732;37.662;2022-09-29T05:22:37;8.27;;;4.22;;
74243;SDS011;62600;55.732;37.662;2022-09-29T05:24:07;6.40;;;3.83;;
74243;SDS011;62600;55.732;37.662;2022-09-29T05:25:38;5.40;;;3.95;;
74243;SDS011;62600;55.732;37.662;2022-09-29T05:27:09;7.32;;;4.18;;
74243;SDS011;62600;55.732;37.662;2022-09-29T05:28:43;7.22;;;4.30;;
74243;SDS011;62600;55.732;37.662;2022-09-29T05:30:15;6.43;;;4.25;;
74243;SDS011;62600;55.732;37.662;2022-09-29T05:31:45;6.25;;;4.15;;
74243;SDS011;62600;55.732;37.662;2022-09-29T05:33:16;7.60;;;4.88;;
74243;SDS011;62600;55.732;37.662;2022-09-29T05:34:46;5.47;;;4.03;;
74243;SDS011;62600;55.732;37.662;2022-09-29T05:36:16;6.88;;;3.92;;
74243;SDS011;62600;55.732;37.662;2022-09-29T05:37:47;6.15;;;4.00;;
74243;SDS011;62600;55.732;37.662;2022-09-29T05:39:18;8.38;;;4.07;;
74243;SDS011;62600;55.732;37.662;2022-09-29T05:40:50;6.95;;;4.32;;
74243;SDS011;62600;55.732;37.662;2022-09-29T05:42:21;6.82;;;4.25;;
74243;SDS011;62600;55.732;37.662;2022-09-29T05:43:53;4.65;;;3.58;;
74243;SDS011;62600;55.732;37.662;2022-09-29T05:45:24;7.43;;;4.25;;
74243;SDS011;62600;55.732;37.662;2022-09-29T05:46:55;5.68;;;4.38;;
74243;SDS011;62600;55.732;37.662;2022-09-29T05:48:25;5.32;;;3.67;;
74243;SDS011;62600;55.732;37.662;2022-09-29T05:49:58;5.60;;;4.30;;
74243;SDS011;62600;55.732;37.662;2022-09-29T05:51:28;5.88;;;4.68;;
74243;SDS011;62600;55.732;37.662;2022-09-29T05:53:02;8.38;;;4.45;;
74243;SDS011;62600;55.732;37.662;2022-09-29T05:54:32;6.60;;;4.63;;
74243;SDS011;62600;55.732;37.662;2022-09-29T05:56:04;6.80;;;4.78;;
74243;SDS011;62600;55.732;37.662;2022-09-29T05:59:07;8.38;;;5.00;;
74243;SDS011;62600;55.732;37.662;2022-09-29T06:00:38;6.43;;;4.90;;
74243;SDS011;62600;55.732;37.662;2022-09-29T06:02:09;8.35;;;4.70;;
74243;SDS011;62600;55.732;37.662;2022-09-29T06:03:40;11.65;;;5.53;;
74243;SDS011;62600;55.732;37.662;2022-09-29T06:05:10;8.68;;;5.55;;
74243;SDS011;62600;55.732;37.662;2022-09-29T06:06:41;9.70;;;5.18;;
74243;SDS011;62600;55.732;37.662;2022-09-29T06:08:11;9.63;;;5.93;;
74243;SDS011;62600;55.732;37.662;2022-09-29T06:09:42;14.88;;;5.60;;
74243;SDS011;62600;55.732;37.662;2022-09-29T06:11:13;9.32;;;6.00;;
74243;SDS011;62600;55.732;37.662;2022-09-29T06:12:45;10.68;;;6.60;;
74243;SDS011;62600;55.732;37.662;2022-09-29T06:14:16;10.82;;;6.80;;
74243;SDS011;62600;55.732;37.662;2022-09-29T06:15:46;13.70;;;8.43;;
74243;SDS011;62600;55.732;37.662;2022-09-29T06:17:17;12.38;;;7.65;;
74243;SDS011;62600;55.732;37.662;2022-09-29T06:18:47;12.30;;;7.05;;
74243;SDS011;62600;55.732;37.662;2022-09-29T06:20:18;11.55;;;7.18;;
74243;SDS011;62600;55.732;37.662;2022-09-29T06:21:49;13.02;;;7.30;;
74243;SDS011;62600;55.732;37.662;2022-09-29T06:23:19;15.57;;;8.50;;
74243;SDS011;62600;55.732;37.662;2022-09-29T06:24:50;12.43;;;7.90;;
74243;SDS011;62600;55.732;37.662;2022-09-29T06:26:20;12.98;;;7.38;;
74243;SDS011;62600;55.732;37.662;2022-09-29T06:27:52;14.60;;;8.27;;
74243;SDS011;62600;55.732;37.662;2022-09-29T06:29:22;17.52;;;8.52;;
74243;SDS011;62600;55.732;37.662;2022-09-29T06:30:57;14.32;;;8.88;;
74243;SDS011;62600;55.732;37.662;2022-09-29T06:32:32;12.48;;;8.25;;
74243;SDS011;62600;55.732;37.662;2022-09-29T06:34:04;13.45;;;8.57;;
74243;SDS011;62600;55.732;37.662;2022-09-29T06:35:34;14.13;;;9.20;;
74243;SDS011;62600;55.732;37.662;2022-09-29T06:37:23;15.20;;;8.07;;
74243;SDS011;62600;55.732;37.662;2022-09-29T06:39:09;11.98;;;7.35;;
74243;SDS011;62600;55.732;37.662;2022-09-29T06:40:41;13.00;;;7.50;;
74243;SDS011;62600;55.732;37.662;2022-09-29T06:42:12;13.35;;;7.25;;
74243;SDS011;62600;55.732;37.662;2022-09-29T06:43:43;12.85;;;7.78;;
74243;SDS011;62600;55.732;37.662;2022-09-29T06:45:14;13.55;;;7.60;;
74243;SDS011;62600;55.732;37.662;2022-09-29T06:46:44;13.20;;;8.27;;
74243;SDS011;62600;55.732;37.662;2022-09-29T06:48:15;12.45;;;7.45;;
74243;SDS011;62600;55.732;37.662;2022-09-29T06:49:45;14.63;;;7.22;;
74243;SDS011;62600;55.732;37.662;2022-09-29T06:51:16;11.30;;;7.00;;
74243;SDS011;62600;55.732;37.662;2022-09-29T06:52:46;10.68;;;6.88;;
74243;SDS011;62600;55.732;37.662;2022-09-29T06:55:54;10.20;;;6.47;;
74243;SDS011;62600;55.732;37.662;2022-09-29T06:57:29;14.27;;;7.00;;
74243;SDS011;62600;55.732;37.662;2022-09-29T06:59:00;15.70;;;6.57;;
74243;SDS011;62600;55.732;37.662;2022-09-29T07:00:31;12.63;;;6.47;;
74243;SDS011;62600;55.732;37.662;2022-09-29T07:02:02;11.57;;;6.45;;
74243;SDS011;62600;55.732;37.662;2022-09-29T07:03:33;12.20;;;6.78;;
74243;SDS011;62600;55.732;37.662;2022-09-29T07:05:04;12.43;;;7.30;;
74243;SDS011;62600;55.732;37.662;2022-09-29T07:06:35;13.32;;;7.60;;
74243;SDS011;62600;55.732;37.662;2022-09-29T07:08:06;13.15;;;7.72;;
74243;SDS011;62600;55.732;37.662;2022-09-29T07:09:36;13.90;;;7.30;;
74243;SDS011;62600;55.732;37.662;2022-09-29T07:11:07;15.73;;;7.93;;
74243;SDS011;62600;55.732;37.662;2022-09-29T07:12:39;12.65;;;6.97;;
74243;SDS011;62600;55.732;37.662;2022-09-29T07:14:10;14.88;;;8.10;;
74243;SDS011;62600;55.732;37.662;2022-09-29T07:15:40;12.55;;;7.43;;
74243;SDS011;62600;55.732;37.662;2022-09-29T07:17:10;14.05;;;8.50;;
74243;SDS011;62600;55.732;37.662;2022-09-29T07:18:42;11.45;;;7.53;;
74243;SDS011;62600;55.732;37.662;2022-09-29T07:20:13;14.77;;;7.97;;
74243;SDS011;62600;55.732;37.662;2022-09-29T07:21:47;14.50;;;8.25;;
74243;SDS011;62600;55.732;37.662;2022-09-29T07:23:17;11.68;;;7.35;;
74243;SDS011;62600;55.732;37.662;2022-09-29T07:24:48;13.93;;;8.23;;
74243;SDS011;62600;55.732;37.662;2022-09-29T07:26:20;15.07;;;8.30;;
74243;SDS011;62600;55.732;37.662;2022-09-29T07:27:51;17.48;;;8.38;;
74243;SDS011;62600;55.732;37.662;2022-09-29T07:29:21;16.98;;;8.55;;
74243;SDS011;62600;55.732;37.662;2022-09-29T07:31:02;14.27;;;8.55;;
74243;SDS011;62600;55.732;37.662;2022-09-29T07:32:33;16.27;;;8.45;;
74243;SDS011;62600;55.732;37.662;2022-09-29T07:34:03;12.98;;;8.05;;
74243;SDS011;62600;55.732;37.662;2022-09-29T07:35:34;16.45;;;7.97;;
74243;SDS011;62600;55.732;37.662;2022-09-29T07:37:04;10.73;;;7.30;;
74243;SDS011;62600;55.732;37.662;2022-09-29T07:38:35;15.15;;;8.10;;
74243;SDS011;62600;55.732;37.662;2022-09-29T07:40:05;13.25;;;7.57;;
74243;SDS011;62600;55.732;37.662;2022-09-29T07:41:36;13.68;;;7.93;;
74243;SDS011;62600;55.732;37.662;2022-09-29T07:43:07;15.18;;;8.02;;
74243;SDS011;62600;55.732;37.662;2022-09-29T07:44:37;12.93;;;7.72;;
74243;SDS011;62600;55.732;37.662;2022-09-29T07:46:08;11.73;;;7.45;;
74243;SDS011;62600;55.732;37.662;2022-09-29T07:47:39;12.63;;;8.32;;
74243;SDS011;62600;55.732;37.662;2022-09-29T07:49:09;15.45;;;8.23;;
74243;SDS011;62600;55.732;37.662;2022-09-29T07:50:40;13.63;;;8.55;;
74243;SDS011;62600;55.732;37.662;2022-09-29T07:52:11;14.48;;;7.95;;
74243;SDS011;62600;55.732;37.662;2022-09-29T07:53:42;16.30;;;8.38;;
74243;SDS011;62600;55.732;37.662;2022-09-29T07:55:13;16.48;;;9.07;;
74243;SDS011;62600;55.732;37.662;2022-09-29T07:56:44;14.10;;;8.45;;
74243;SDS011;62600;55.732;37.662;2022-09-29T07:58:14;13.40;;;8.15;;
74243;SDS011;62600;55.732;37.662;2022-09-29T07:59:45;14.82;;;7.40;;
74243;SDS011;62600;55.732;37.662;2022-09-29T08:01:16;14.63;;;8.48;;
74243;SDS011;62600;55.732;37.662;2022-09-29T08:02:48;13.35;;;8.35;;
74243;SDS011;62600;55.732;37.662;2022-09-29T08:04:19;14.57;;;8.13;;
74243;SDS011;62600;55.732;37.662;2022-09-29T08:05:49;13.27;;;8.25;;
74243;SDS011;62600;55.732;37.662;2022-09-29T08:07:19;15.23;;;8.43;;
74243;SDS011;62600;55.732;37.662;2022-09-29T08:08:50;13.00;;;8.68;;
74243;SDS011;62600;55.732;37.662;2022-09-29T08:10:21;17.25;;;9.43;;
74243;SDS011;62600;55.732;37.662;2022-09-29T08:11:51;16.33;;;8.60;;
74243;SDS011;62600;55.732;37.662;2022-09-29T08:13:22;13.85;;;7.70;;
74243;SDS011;62600;55.732;37.662;2022-09-29T08:14:52;14.02;;;7.95;;
74243;SDS011;62600;55.732;37.662;2022-09-29T08:16:22;16.20;;;8.18;;
74243;SDS011;62600;55.732;37.662;2022-09-29T08:17:53;15.85;;;7.80;;
74243;SDS011;62600;55.732;37.662;2022-09-29T08:19:24;13.95;;;7.72;;
74243;SDS011;62600;55.732;37.662;2022-09-29T08:20:57;15.50;;;8.10;;
74243;SDS011;62600;55.732;37.662;2022-09-29T08:22:27;15.80;;;7.95;;
74243;SDS011;62600;55.732;37.662;2022-09-29T08:23:57;14.45;;;7.78;;
74243;SDS011;62600;55.732;37.662;2022-09-29T08:25:29;16.55;;;7.47;;
74243;SDS011;62600;55.732;37.662;2022-09-29T08:27:00;15.88;;;8.73;;
74243;SDS011;62600;55.732;37.662;2022-09-29T08:28:31;13.20;;;7.68;;
74243;SDS011;62600;55.732;37.662;2022-09-29T08:30:03;12.50;;;7.70;;
74243;SDS011;62600;55.732;37.662;2022-09-29T08:31:35;17.63;;;8.63;;
74243;SDS011;62600;55.732;37.662;2022-09-29T08:33:06;13.25;;;7.40;;
74243;SDS011;62600;55.732;37.662;2022-09-29T08:34:43;13.07;;;7.80;;
74243;SDS011;62600;55.732;37.662;2022-09-29T08:36:14;16.10;;;8.48;;
74243;SDS011;62600;55.732;37.662;2022-09-29T08:37:45;15.55;;;8.05;;
74243;SDS011;62600;55.732;37.662;2022-09-29T08:39:16;13.98;;;8.25;;
74243;SDS011;62600;55.732;37.662;2022-09-29T08:40:48;11.85;;;8.45;;
74243;SDS011;62600;55.732;37.662;2022-09-29T08:42:25;12.52;;;7.50;;
74243;SDS011;62600;55.732;37.662;2022-09-29T08:46:11;14.15;;;8.23;;
74243;SDS011;62600;55.732;37.662;2022-09-29T08:47:53;13.30;;;8.40;;
74243;SDS011;62600;55.732;37.662;2022-09-29T08:49:41;12.82;;;7.75;;
74243;SDS011;62600;55.732;37.662;2022-09-29T08:51:33;13.30;;;7.60;;
74243;SDS011;62600;55.732;37.662;2022-09-29T08:53:15;14.30;;;8.60;;
74243;SDS011;62600;55.732;37.662;2022-09-29T08:54:55;13.82;;;8.60;;
74243;SDS011;62600;55.732;37.662;2022-09-29T08:56:42;11.70;;;8.20;;
74243;SDS011;62600;55.732;37.662;2022-09-29T08:58:13;14.95;;;8.77;;
74243;SDS011;62600;55.732;37.662;2022-09-29T08:59:47;14.05;;;8.52;;
74243;SDS011;62600;55.732;37.662;2022-09-29T09:14:09;12.00;;;7.97;;
74243;SDS011;62600;55.732;37.662;2022-09-29T09:15:49;16.02;;;7.30;;
74243;SDS011;62600;55.732;37.662;2022-09-29T09:19:27;11.90;;;7.53;;
74243;SDS011;62600;55.732;37.662;2022-09-29T09:21:26;15.05;;;8.82;;
74243;SDS011;62600;55.732;37.662;2022-09-29T09:26:41;14.52;;;7.60;;
74243;SDS011;62600;55.732;37.662;2022-09-29T09:30:15;17.25;;;9.00;;
74243;SDS011;62600;55.732;37.662;2022-09-29T09:31:53;14.60;;;8.30;;
74243;SDS011;62600;55.732;37.662;2022-09-29T09:35:19;15.63;;;8.73;;
74243;SDS011;62600;55.732;37.662;2022-09-29T09:38:43;15.00;;;8.50;;
74243;SDS011;62600;55.732;37.662;2022-09-29T09:40:21;14.32;;;8.85;;
74243;SDS011;62600;55.732;37.662;2022-09-29T09:41:56;13.20;;;8.43;;
74243;SDS011;62600;55.732;37.662;2022-09-29T09:43:33;18.25;;;9.73;;
74243;SDS011;62600;55.732;37.662;2022-09-29T09:45:12;13.40;;;8.73;;
74243;SDS011;62600;55.732;37.662;2022-09-29T09:46:53;15.10;;;8.50;;
74243;SDS011;62600;55.732;37.662;2022-09-29T09:48:29;12.77;;;8.63;;
74243;SDS011;62600;55.732;37.662;2022-09-29T09:50:14;12.82;;;8.43;;
74243;SDS011;62600;55.732;37.662;2022-09-29T09:55:26;15.52;;;8.13;;
74243;SDS011;62600;55.732;37.662;2022-09-29T09:59:09;12.25;;;8.07;;
74243;SDS011;62600;55.732;37.662;2022-09-29T10:01:01;12.30;;;7.78;;
74243;SDS011;62600;55.732;37.662;2022-09-29T10:02:45;14.38;;;8.05;;
74243;SDS011;62600;55.732;37.662;2022-09-29T10:04:18;13.32;;;7.95;;
74243;SDS011;62600;55.732;37.662;2022-09-29T10:05:48;12.13;;;7.18;;
74243;SDS011;62600;55.732;37.662;2022-09-29T10:07:20;14.38;;;7.65;;
74243;SDS011;62600;55.732;37.662;2022-09-29T10:08:53;12.43;;;7.95;;
74243;SDS011;62600;55.732;37.662;2022-09-29T10:10:24;14.43;;;8.35;;
74243;SDS011;62600;55.732;37.662;2022-09-29T10:11:57;12.25;;;7.80;;
74243;SDS011;62600;55.732;37.662;2022-09-29T10:13:28;12.95;;;8.32;;
74243;SDS011;62600;55.732;37.662;2022-09-29T10:15:03;12.35;;;7.57;;
74243;SDS011;62600;55.732;37.662;2022-09-29T10:20:02;11.75;;;7.15;;
74243;SDS011;62600;55.732;37.662;2022-09-29T10:21:36;12.80;;;7.95;;
74243;SDS011;62600;55.732;37.662;2022-09-29T10:25:15;13.68;;;8.05;;
74243;SDS011;62600;55.732;37.662;2022-09-29T10:26:51;11.40;;;7.10;;
74243;SDS011;62600;55.732;37.662;2022-09-29T10:28:24;11.65;;;7.00;;
74243;SDS011;62600;55.732;37.662;2022-09-29T10:29:57;16.50;;;7.47;;
74243;SDS011;62600;55.732;37.662;2022-09-29T10:31:33;12.48;;;7.50;;